createdAt,value
2022-08-25T00:03:17.412Z,21.13
2022-08-25T00:13:20.761Z,21.09
2022-08-25T00:23:31.082Z,21.09
2022-08-25T00:33:33.936Z,21.02
2022-08-25T00:43:42.697Z,20.76
2022-08-25T00:53:45.355Z,20.60
2022-08-25T01:03:47.958Z,20.48
2022-08-25T01:13:52.843Z,20.30
2022-08-25T01:23:58.732Z,20.24
2022-08-25T01:34:03.819Z,20.23
2022-08-25T01:44:06.260Z,19.97
2022-08-25T01:54:11.245Z,19.99
2022-08-25T02:04:13.668Z,19.93
2022-08-25T02:14:17.217Z,20.00
2022-08-25T02:24:20.168Z,19.93
2022-08-25T02:34:23.541Z,19.89
2022-08-25T02:44:26.096Z,19.77
2022-08-25T02:54:29.565Z,19.77
2022-08-25T03:04:32.485Z,19.65
2022-08-25T03:14:34.988Z,19.67
2022-08-25T03:24:37.411Z,19.60
2022-08-25T03:34:39.788Z,19.49
2022-08-25T03:44:42.166Z,19.57
2022-08-25T03:54:45.078Z,19.57
2022-08-25T04:04:47.694Z,19.67
2022-08-25T04:14:51.062Z,19.71
2022-08-25T04:24:56.084Z,19.87
2022-08-25T04:34:59.247Z,20.03
2022-08-25T04:45:02.296Z,20.33
2022-08-25T04:55:05.357Z,20.80
2022-08-25T05:05:07.980Z,21.22
2022-08-25T05:15:30.943Z,21.65
2022-08-25T05:25:34.863Z,22.05
2022-08-25T05:35:37.991Z,22.56
2022-08-25T05:45:41.886Z,23.01
2022-08-25T05:55:47.713Z,23.68
2022-08-25T06:05:50.445Z,24.32
2022-08-25T06:15:58.418Z,24.73
2022-08-25T06:26:00.867Z,25.23
2022-08-25T06:36:03.429Z,25.85
2022-08-25T06:46:11.605Z,26.51
2022-08-25T06:56:14.981Z,26.98
2022-08-25T07:06:18.801Z,27.63
2022-08-25T07:16:22.045Z,28.24
2022-08-25T07:26:37.314Z,28.38
2022-08-25T07:36:40.658Z,29.34
2022-08-25T07:46:43.268Z,29.89
2022-08-25T07:56:45.762Z,29.99
2022-08-25T08:06:48.125Z,30.94
2022-08-25T08:16:50.925Z,30.43
2022-08-25T08:26:58.549Z,31.49
2022-08-25T08:37:02.640Z,32.02
2022-08-25T08:47:19.150Z,32.52
2022-08-25T08:57:27.446Z,32.60
2022-08-25T09:07:37.970Z,32.68
2022-08-25T09:17:54.609Z,33.59
2022-08-25T09:28:02.870Z,33.95
2022-08-25T09:38:09.413Z,33.81
2022-08-25T09:48:40.787Z,34.81
2022-08-25T09:58:43.912Z,34.88
2022-08-25T10:08:47.132Z,34.93
2022-08-25T10:19:23.684Z,34.58
2022-08-25T10:29:38.758Z,35.76
2022-08-25T10:40:12.582Z,36.35
2022-08-25T10:50:27.658Z,36.27
2022-08-25T11:00:48.252Z,36.06
2022-08-25T11:11:08.740Z,37.16
2022-08-25T11:21:18.142Z,37.44
2022-08-25T11:31:25.864Z,37.43
2022-08-25T11:41:52.222Z,37.33
2022-08-25T11:51:54.562Z,37.01
2022-08-25T12:02:05.821Z,36.85
2022-08-25T12:12:46.797Z,37.61
2022-08-25T12:22:55.440Z,37.37
2022-08-25T12:33:22.024Z,37.43
2022-08-25T12:43:37.251Z,37.01
2022-08-25T12:53:54.126Z,37.40
2022-08-25T13:04:28.131Z,37.24
2022-08-25T13:14:37.875Z,37.27
2022-08-25T13:24:43.798Z,36.70
2022-08-25T13:34:47.208Z,36.99
2022-08-25T13:44:51.651Z,36.58
2022-08-25T13:54:59.942Z,36.38
2022-08-25T14:05:02.340Z,36.45
2022-08-25T14:15:04.759Z,35.91
2022-08-25T14:25:11.490Z,35.80
2022-08-25T14:35:17.360Z,35.89
2022-08-25T14:45:20.009Z,35.41
2022-08-25T14:55:31.510Z,35.18
2022-08-25T15:05:35.491Z,34.77
2022-08-25T15:15:53.002Z,34.52
2022-08-25T15:25:56.721Z,34.15
2022-08-25T15:35:59.054Z,33.46
2022-08-25T15:46:02.238Z,33.20
2022-08-25T15:56:07.046Z,32.77
2022-08-25T16:06:10.312Z,32.16
2022-08-25T16:16:16.173Z,31.69
2022-08-25T16:26:18.907Z,31.27
2022-08-25T16:36:24.403Z,30.48
2022-08-25T16:46:30.595Z,29.77
2022-08-25T16:56:37.050Z,29.04
2022-08-25T17:06:42.462Z,28.49
2022-08-25T17:16:58.069Z,27.80
2022-08-25T17:27:01.978Z,27.24
2022-08-25T17:37:05.583Z,26.70
2022-08-25T17:47:08.526Z,26.02
2022-08-25T17:57:12.436Z,25.65
2022-08-25T18:07:15.560Z,25.36
2022-08-25T18:17:22.932Z,25.32
2022-08-25T18:27:25.887Z,24.79
2022-08-25T18:37:47.134Z,24.72
2022-08-25T18:47:53.559Z,24.54
2022-08-25T18:57:57.247Z,24.24
2022-08-25T19:08:01.471Z,23.92
2022-08-25T19:18:10.738Z,23.80
2022-08-25T19:28:14.943Z,23.65
2022-08-25T19:38:33.688Z,23.13
2022-08-25T19:48:36.816Z,23.05
2022-08-25T19:58:39.764Z,23.32
2022-08-25T20:08:43.425Z,23.77
2022-08-25T20:18:46.072Z,23.64
2022-08-25T20:28:48.777Z,23.71
2022-08-25T20:38:51.647Z,24.19
2022-08-25T20:48:54.011Z,24.41
2022-08-25T20:58:56.869Z,24.71
2022-08-25T21:08:59.266Z,25.10
2022-08-25T21:19:01.724Z,25.04
2022-08-25T21:29:07.839Z,24.84
2022-08-25T21:39:11.083Z,24.62
2022-08-25T21:49:13.547Z,24.49
2022-08-25T21:59:20.159Z,24.28
2022-08-25T22:09:23.502Z,24.39
2022-08-25T22:19:26.205Z,24.22
2022-08-25T22:29:28.548Z,24.23
2022-08-25T22:39:34.591Z,24.07
2022-08-25T22:49:39.414Z,23.91
2022-08-25T22:59:42.654Z,23.90
2022-08-25T23:09:45.031Z,23.85
2022-08-25T23:19:48.548Z,23.92
2022-08-25T23:29:50.898Z,23.81
2022-08-25T23:39:53.296Z,23.70
2022-08-25T23:49:55.860Z,23.62
2022-08-25T23:59:58.098Z,23.57
